sensor_id;sensor_type;location;lat;lon;timestamp;pressure;altitude;pressure_sealevel;temperature;humidity
60371;BME280;48550;40.588;49.684;2023-03-19T00:01:57;101720.47;;;9.83;100.00
60371;BME280;48550;40.588;49.684;2023-03-19T00:04:26;101705.94;;;9.58;100.00
60371;BME280;48550;40.588;49.684;2023-03-19T00:06:52;101720.34;;;9.50;100.00
60371;BME280;48550;40.588;49.684;2023-03-19T00:09:19;101724.38;;;9.87;100.00
60371;BME280;48550;40.588;49.684;2023-03-19T00:11:45;101716.56;;;10.19;100.00
60371;BME280;48550;40.588;49.684;2023-03-19T00:14:11;101722.16;;;10.17;100.00
60371;BME280;48550;40.588;49.684;2023-03-19T00:16:36;101712.00;;;9.86;100.00
60371;BME280;48550;40.588;49.684;2023-03-19T00:19:03;101718.16;;;9.67;100.00
60371;BME280;48550;40.588;49.684;2023-03-19T00:21:29;101721.38;;;9.56;100.00
60371;BME280;48550;40.588;49.684;2023-03-19T00:23:55;101716.03;;;9.63;100.00
60371;BME280;48550;40.588;49.684;2023-03-19T00:26:29;101720.94;;;9.46;100.00
60371;BME280;48550;40.588;49.684;2023-03-19T00:28:56;101712.44;;;9.36;100.00
60371;BME280;48550;40.588;49.684;2023-03-19T00:31:22;101708.69;;;9.23;100.00
60371;BME280;48550;40.588;49.684;2023-03-19T00:33:48;101711.53;;;9.15;100.00
60371;BME280;48550;40.588;49.684;2023-03-19T00:36:15;101715.22;;;9.08;100.00
60371;BME280;48550;40.588;49.684;2023-03-19T00:38:42;101717.19;;;9.34;100.00
60371;BME280;48550;40.588;49.684;2023-03-19T00:41:09;101722.81;;;9.52;100.00
60371;BME280;48550;40.588;49.684;2023-03-19T00:43:35;101732.44;;;9.33;100.00
60371;BME280;48550;40.588;49.684;2023-03-19T00:46:02;101743.34;;;9.32;100.00
60371;BME280;48550;40.588;49.684;2023-03-19T00:48:27;101738.72;;;9.60;100.00
60371;BME280;48550;40.588;49.684;2023-03-19T00:50:53;101739.63;;;9.74;100.00
60371;BME280;48550;40.588;49.684;2023-03-19T00:53:19;101740.13;;;9.49;100.00
60371;BME280;48550;40.588;49.684;2023-03-19T00:55:46;101738.91;;;9.52;100.00
60371;BME280;48550;40.588;49.684;2023-03-19T00:58:12;101733.66;;;9.31;100.00
60371;BME280;48550;40.588;49.684;2023-03-19T01:00:38;101745.72;;;9.13;100.00
60371;BME280;48550;40.588;49.684;2023-03-19T01:03:05;101741.97;;;9.01;100.00
60371;BME280;48550;40.588;49.684;2023-03-19T01:05:33;101744.13;;;9.19;100.00
60371;BME280;48550;40.588;49.684;2023-03-19T01:07:58;101741.47;;;9.26;100.00
60371;BME280;48550;40.588;49.684;2023-03-19T01:10:24;101750.03;;;9.08;100.00
60371;BME280;48550;40.588;49.684;2023-03-19T01:12:50;101745.09;;;9.11;100.00
60371;BME280;48550;40.588;49.684;2023-03-19T01:15:17;101738.03;;;8.97;100.00
60371;BME280;48550;40.588;49.684;2023-03-19T01:17:43;101742.47;;;8.90;100.00
60371;BME280;48550;40.588;49.684;2023-03-19T01:20:09;101743.31;;;8.90;100.00
60371;BME280;48550;40.588;49.684;2023-03-19T01:22:39;101751.44;;;9.04;100.00
60371;BME280;48550;40.588;49.684;2023-03-19T01:25:06;101745.81;;;8.92;100.00
60371;BME280;48550;40.588;49.684;2023-03-19T01:27:32;101748.22;;;8.87;100.00
60371;BME280;48550;40.588;49.684;2023-03-19T01:29:58;101750.44;;;8.77;100.00
60371;BME280;48550;40.588;49.684;2023-03-19T01:32:24;101751.53;;;8.89;100.00
60371;BME280;48550;40.588;49.684;2023-03-19T01:34:49;101746.53;;;8.79;100.00
60371;BME280;48550;40.588;49.684;2023-03-19T01:37:15;101747.91;;;8.69;100.00
60371;BME280;48550;40.588;49.684;2023-03-19T01:39:41;101741.47;;;8.63;100.00
60371;BME280;48550;40.588;49.684;2023-03-19T01:42:07;101740.03;;;8.60;100.00
60371;BME280;48550;40.588;49.684;2023-03-19T01:44:35;101741.63;;;8.83;100.00
60371;BME280;48550;40.588;49.684;2023-03-19T01:47:13;101742.25;;;9.19;100.00
60371;BME280;48550;40.588;49.684;2023-03-19T01:49:41;101743.88;;;9.14;100.00
60371;BME280;48550;40.588;49.684;2023-03-19T01:52:10;101746.56;;;9.14;100.00
60371;BME280;48550;40.588;49.684;2023-03-19T01:54:38;101759.28;;;9.46;100.00
60371;BME280;48550;40.588;49.684;2023-03-19T01:57:08;101759.66;;;9.84;100.00
60371;BME280;48550;40.588;49.684;2023-03-19T01:59:42;101764.38;;;9.82;100.00
60371;BME280;48550;40.588;49.684;2023-03-19T02:02:21;101760.16;;;9.60;100.00
60371;BME280;48550;40.588;49.684;2023-03-19T02:04:52;101748.13;;;9.43;100.00
60371;BME280;48550;40.588;49.684;2023-03-19T02:07:21;101754.25;;;9.30;100.00
60371;BME280;48550;40.588;49.684;2023-03-19T02:09:47;101755.06;;;9.24;100.00
60371;BME280;48550;40.588;49.684;2023-03-19T02:12:13;101756.84;;;9.58;100.00
60371;BME280;48550;40.588;49.684;2023-03-19T02:14:39;101765.38;;;9.68;100.00
60371;BME280;48550;40.588;49.684;2023-03-19T02:17:06;101764.69;;;9.60;100.00
60371;BME280;48550;40.588;49.684;2023-03-19T02:22:04;101766.00;;;9.77;100.00
60371;BME280;48550;40.588;49.684;2023-03-19T02:27:18;101755.13;;;9.92;100.00
60371;BME280;48550;40.588;49.684;2023-03-19T02:29:43;101757.84;;;10.05;100.00
60371;BME280;48550;40.588;49.684;2023-03-19T02:32:09;101754.72;;;9.95;100.00
60371;BME280;48550;40.588;49.684;2023-03-19T02:34:40;101746.69;;;10.01;100.00
60371;BME280;48550;40.588;49.684;2023-03-19T02:42:09;101757.66;;;9.11;100.00
60371;BME280;48550;40.588;49.684;2023-03-19T02:44:36;101763.31;;;9.29;100.00
60371;BME280;48550;40.588;49.684;2023-03-19T02:47:02;101769.91;;;9.27;100.00
60371;BME280;48550;40.588;49.684;2023-03-19T02:49:28;101777.78;;;9.35;100.00
60371;BME280;48550;40.588;49.684;2023-03-19T02:51:54;101778.91;;;9.12;100.00
60371;BME280;48550;40.588;49.684;2023-03-19T02:54:20;101783.84;;;9.15;100.00
60371;BME280;48550;40.588;49.684;2023-03-19T02:56:46;101783.53;;;9.32;100.00
60371;BME280;48550;40.588;49.684;2023-03-19T02:59:12;101792.94;;;9.62;100.00
60371;BME280;48550;40.588;49.684;2023-03-19T03:01:37;101795.22;;;9.65;100.00
60371;BME280;48550;40.588;49.684;2023-03-19T03:04:03;101796.16;;;9.85;100.00
60371;BME280;48550;40.588;49.684;2023-03-19T03:06:30;101794.53;;;9.98;100.00
60371;BME280;48550;40.588;49.684;2023-03-19T03:08:56;101796.81;;;10.01;100.00
60371;BME280;48550;40.588;49.684;2023-03-19T03:11:22;101797.59;;;9.88;100.00
60371;BME280;48550;40.588;49.684;2023-03-19T03:13:48;101805.63;;;9.81;100.00
60371;BME280;48550;40.588;49.684;2023-03-19T03:16:14;101809.34;;;9.87;100.00
60371;BME280;48550;40.588;49.684;2023-03-19T03:18:40;101807.34;;;10.09;100.00
60371;BME280;48550;40.588;49.684;2023-03-19T03:21:06;101811.13;;;10.21;100.00
60371;BME280;48550;40.588;49.684;2023-03-19T03:23:32;101811.53;;;10.25;100.00
60371;BME280;48550;40.588;49.684;2023-03-19T03:25:58;101816.09;;;10.37;100.00
60371;BME280;48550;40.588;49.684;2023-03-19T03:28:24;101824.56;;;10.34;100.00
60371;BME280;48550;40.588;49.684;2023-03-19T03:30:49;101823.94;;;10.26;100.00
60371;BME280;48550;40.588;49.684;2023-03-19T03:33:16;101831.72;;;10.14;100.00
60371;BME280;48550;40.588;49.684;2023-03-19T03:35:42;101833.56;;;10.13;100.00
60371;BME280;48550;40.588;49.684;2023-03-19T03:38:07;101844.72;;;10.17;100.00
60371;BME280;48550;40.588;49.684;2023-03-19T03:40:34;101837.22;;;10.47;100.00
60371;BME280;48550;40.588;49.684;2023-03-19T03:43:01;101841.09;;;10.38;100.00
60371;BME280;48550;40.588;49.684;2023-03-19T03:45:26;101844.44;;;10.60;100.00
60371;BME280;48550;40.588;49.684;2023-03-19T03:47:52;101844.22;;;10.48;100.00
60371;BME280;48550;40.588;49.684;2023-03-19T03:50:18;101854.38;;;10.66;100.00
60371;BME280;48550;40.588;49.684;2023-03-19T03:52:43;101860.34;;;10.68;100.00
60371;BME280;48550;40.588;49.684;2023-03-19T03:55:09;101856.63;;;10.69;100.00
60371;BME280;48550;40.588;49.684;2023-03-19T03:57:35;101848.56;;;10.62;100.00
60371;BME280;48550;40.588;49.684;2023-03-19T04:00:02;101858.91;;;10.78;100.00
60371;BME280;48550;40.588;49.684;2023-03-19T04:02:29;101868.00;;;11.10;100.00
60371;BME280;48550;40.588;49.684;2023-03-19T04:04:55;101862.19;;;11.13;100.00
60371;BME280;48550;40.588;49.684;2023-03-19T04:07:20;101868.22;;;11.22;100.00
60371;BME280;48550;40.588;49.684;2023-03-19T04:09:46;101868.59;;;11.39;100.00
60371;BME280;48550;40.588;49.684;2023-03-19T04:12:13;101873.97;;;11.39;100.00
60371;BME280;48550;40.588;49.684;2023-03-19T04:14:39;101875.19;;;11.50;100.00
60371;BME280;48550;40.588;49.684;2023-03-19T04:17:04;101874.56;;;11.54;100.00
60371;BME280;48550;40.588;49.684;2023-03-19T04:19:31;101882.41;;;11.62;100.00
60371;BME280;48550;40.588;49.684;2023-03-19T04:21:57;101872.44;;;11.69;100.00
60371;BME280;48550;40.588;49.684;2023-03-19T04:24:24;101873.47;;;11.75;100.00
60371;BME280;48550;40.588;49.684;2023-03-19T04:26:50;101874.69;;;11.92;100.00
60371;BME280;48550;40.588;49.684;2023-03-19T04:29:17;101868.34;;;12.25;100.00
60371;BME280;48550;40.588;49.684;2023-03-19T04:31:43;101870.38;;;12.29;100.00
60371;BME280;48550;40.588;49.684;2023-03-19T04:34:10;101870.63;;;12.53;100.00
60371;BME280;48550;40.588;49.684;2023-03-19T04:36:37;101880.59;;;12.52;100.00
60371;BME280;48550;40.588;49.684;2023-03-19T04:39:03;101888.00;;;12.57;100.00
60371;BME280;48550;40.588;49.684;2023-03-19T04:41:29;101891.34;;;12.52;100.00
60371;BME280;48550;40.588;49.684;2023-03-19T04:43:55;101882.84;;;12.55;100.00
60371;BME280;48550;40.588;49.684;2023-03-19T04:46:21;101870.53;;;12.72;100.00
60371;BME280;48550;40.588;49.684;2023-03-19T04:48:47;101877.34;;;13.00;100.00
60371;BME280;48550;40.588;49.684;2023-03-19T04:51:12;101886.59;;;13.11;100.00
60371;BME280;48550;40.588;49.684;2023-03-19T04:53:39;101887.25;;;13.31;100.00
60371;BME280;48550;40.588;49.684;2023-03-19T04:56:06;101888.06;;;13.56;100.00
60371;BME280;48550;40.588;49.684;2023-03-19T04:58:32;101886.78;;;13.59;100.00
60371;BME280;48550;40.588;49.684;2023-03-19T05:00:58;101884.63;;;13.49;100.00
60371;BME280;48550;40.588;49.684;2023-03-19T05:03:24;101887.78;;;13.64;100.00
60371;BME280;48550;40.588;49.684;2023-03-19T05:05:52;101884.16;;;13.89;100.00
60371;BME280;48550;40.588;49.684;2023-03-19T05:08:18;101885.38;;;13.75;100.00
60371;BME280;48550;40.588;49.684;2023-03-19T05:10:44;101887.16;;;13.99;100.00
60371;BME280;48550;40.588;49.684;2023-03-19T05:13:10;101887.66;;;14.08;100.00
60371;BME280;48550;40.588;49.684;2023-03-19T05:15:35;101895.06;;;14.49;100.00
60371;BME280;48550;40.588;49.684;2023-03-19T05:18:01;101892.69;;;14.22;100.00
60371;BME280;48550;40.588;49.684;2023-03-19T05:20:27;101893.41;;;14.89;100.00
60371;BME280;48550;40.588;49.684;2023-03-19T05:22:53;101892.06;;;14.39;100.00
60371;BME280;48550;40.588;49.684;2023-03-19T05:25:18;101884.03;;;15.50;100.00
60371;BME280;48550;40.588;49.684;2023-03-19T05:27:45;101899.19;;;16.83;100.00
60371;BME280;48550;40.588;49.684;2023-03-19T05:30:11;101892.81;;;16.61;100.00
60371;BME280;48550;40.588;49.684;2023-03-19T05:32:37;101892.19;;;16.88;100.00
60371;BME280;48550;40.588;49.684;2023-03-19T05:35:05;101897.97;;;17.80;94.48
60371;BME280;48550;40.588;49.684;2023-03-19T05:37:31;101897.09;;;18.67;85.18
60371;BME280;48550;40.588;49.684;2023-03-19T05:39:57;101897.44;;;18.76;81.05
60371;BME280;48550;40.588;49.684;2023-03-19T05:42:22;101892.94;;;18.91;77.67
60371;BME280;48550;40.588;49.684;2023-03-19T05:44:48;101904.13;;;18.41;86.48
60371;BME280;48550;40.588;49.684;2023-03-19T05:47:14;101900.72;;;19.99;72.46
60371;BME280;48550;40.588;49.684;2023-03-19T05:49:40;101896.00;;;19.00;71.42
60371;BME280;48550;40.588;49.684;2023-03-19T05:52:06;101904.19;;;19.79;64.51
60371;BME280;48550;40.588;49.684;2023-03-19T05:54:32;101904.00;;;18.80;74.40
60371;BME280;48550;40.588;49.684;2023-03-19T05:56:58;101913.50;;;19.09;67.95
60371;BME280;48550;40.588;49.684;2023-03-19T05:59:24;101909.66;;;19.05;69.83
60371;BME280;48550;40.588;49.684;2023-03-19T06:01:50;101905.34;;;19.09;71.99
60371;BME280;48550;40.588;49.684;2023-03-19T06:04:15;101891.19;;;18.26;74.22
60371;BME280;48550;40.588;49.684;2023-03-19T06:06:41;101904.78;;;19.44;66.77
60371;BME280;48550;40.588;49.684;2023-03-19T06:09:07;101898.34;;;19.55;61.28
60371;BME280;48550;40.588;49.684;2023-03-19T06:11:33;101900.19;;;19.50;65.79
60371;BME280;48550;40.588;49.684;2023-03-19T06:13:58;101902.06;;;21.10;58.17
60371;BME280;48550;40.588;49.684;2023-03-19T06:16:24;101908.59;;;20.93;58.64
60371;BME280;48550;40.588;49.684;2023-03-19T06:18:51;101913.06;;;22.05;51.64
60371;BME280;48550;40.588;49.684;2023-03-19T06:21:17;101910.53;;;21.23;51.48
60371;BME280;48550;40.588;49.684;2023-03-19T06:23:42;101910.19;;;20.44;56.81
60371;BME280;48550;40.588;49.684;2023-03-19T06:26:08;101927.97;;;21.43;49.55
60371;BME280;48550;40.588;49.684;2023-03-19T06:28:34;101914.03;;;20.73;55.97
60371;BME280;48550;40.588;49.684;2023-03-19T06:30:59;101914.75;;;21.85;51.18
60371;BME280;48550;40.588;49.684;2023-03-19T06:33:25;101903.94;;;22.25;48.51
60371;BME280;48550;40.588;49.684;2023-03-19T06:35:56;101903.94;;;20.58;54.66
60371;BME280;48550;40.588;49.684;2023-03-19T06:38:22;101904.13;;;21.84;50.00
60371;BME280;48550;40.588;49.684;2023-03-19T06:40:48;101897.28;;;20.29;56.31
60371;BME280;48550;40.588;49.684;2023-03-19T06:43:14;101897.06;;;19.73;56.91
60371;BME280;48550;40.588;49.684;2023-03-19T06:45:40;101891.34;;;19.70;57.94
60371;BME280;48550;40.588;49.684;2023-03-19T06:48:06;101883.41;;;20.30;56.17
60371;BME280;48550;40.588;49.684;2023-03-19T06:50:31;101890.56;;;20.77;51.98
60371;BME280;48550;40.588;49.684;2023-03-19T06:52:57;101884.88;;;20.84;52.75
60371;BME280;48550;40.588;49.684;2023-03-19T06:55:23;101891.16;;;20.89;51.11
60371;BME280;48550;40.588;49.684;2023-03-19T06:57:49;101879.41;;;21.09;54.53
60371;BME280;48550;40.588;49.684;2023-03-19T07:00:16;101864.41;;;19.78;56.40
60371;BME280;48550;40.588;49.684;2023-03-19T07:02:42;101872.22;;;19.59;58.96
60371;BME280;48550;40.588;49.684;2023-03-19T07:05:09;101875.28;;;20.61;53.88
60371;BME280;48550;40.588;49.684;2023-03-19T07:07:35;101871.47;;;20.77;56.47
60371;BME280;48550;40.588;49.684;2023-03-19T07:10:01;101857.31;;;20.96;50.27
60371;BME280;48550;40.588;49.684;2023-03-19T07:12:28;101869.78;;;21.47;50.13
60371;BME280;48550;40.588;49.684;2023-03-19T07:14:54;101872.03;;;21.05;52.08
60371;BME280;48550;40.588;49.684;2023-03-19T07:17:23;101867.28;;;20.19;56.66
60371;BME280;48550;40.588;49.684;2023-03-19T07:19:49;101868.47;;;21.14;53.10
60371;BME280;48550;40.588;49.684;2023-03-19T07:22:15;101863.28;;;20.47;52.77
60371;BME280;48550;40.588;49.684;2023-03-19T07:24:42;101856.41;;;20.34;54.57
60371;BME280;48550;40.588;49.684;2023-03-19T07:27:07;101857.84;;;20.72;54.66
60371;BME280;48550;40.588;49.684;2023-03-19T07:29:33;101854.81;;;20.43;52.04
60371;BME280;48550;40.588;49.684;2023-03-19T07:31:59;101849.75;;;18.63;61.26
60371;BME280;48550;40.588;49.684;2023-03-19T07:34:25;101830.19;;;17.68;68.18
60371;BME280;48550;40.588;49.684;2023-03-19T07:36:51;101840.50;;;16.61;74.62
60371;BME280;48550;40.588;49.684;2023-03-19T07:39:18;101835.50;;;15.96;82.01
60371;BME280;48550;40.588;49.684;2023-03-19T07:41:43;101834.13;;;15.81;87.54
60371;BME280;48550;40.588;49.684;2023-03-19T07:44:12;101835.84;;;14.89;95.74
60371;BME280;48550;40.588;49.684;2023-03-19T07:46:38;101834.44;;;14.98;97.97
60371;BME280;48550;40.588;49.684;2023-03-19T07:49:03;101828.53;;;15.36;94.19
60371;BME280;48550;40.588;49.684;2023-03-19T07:51:29;101830.16;;;15.37;92.48
60371;BME280;48550;40.588;49.684;2023-03-19T07:53:55;101829.72;;;15.64;86.17
60371;BME280;48550;40.588;49.684;2023-03-19T07:56:20;101826.41;;;15.38;89.17
60371;BME280;48550;40.588;49.684;2023-03-19T07:58:46;101821.34;;;15.30;93.25
60371;BME280;48550;40.588;49.684;2023-03-19T08:01:12;101821.97;;;15.09;97.70
60371;BME280;48550;40.588;49.684;2023-03-19T08:03:37;101823.47;;;15.28;93.88
60371;BME280;48550;40.588;49.684;2023-03-19T08:06:04;101834.53;;;15.38;95.32
60371;BME280;48550;40.588;49.684;2023-03-19T08:08:30;101827.56;;;15.42;97.05
60371;BME280;48550;40.588;49.684;2023-03-19T08:10:55;101829.69;;;15.40;94.50
60371;BME280;48550;40.588;49.684;2023-03-19T08:13:22;101821.25;;;15.25;99.44
60371;BME280;48550;40.588;49.684;2023-03-19T08:15:50;101820.25;;;15.54;93.18
60371;BME280;48550;40.588;49.684;2023-03-19T08:18:18;101820.06;;;15.21;96.26
60371;BME280;48550;40.588;49.684;2023-03-19T08:20:44;101811.97;;;15.09;96.79
60371;BME280;48550;40.588;49.684;2023-03-19T08:23:11;101802.81;;;15.10;92.45
60371;BME280;48550;40.588;49.684;2023-03-19T08:25:37;101808.19;;;15.34;93.50
60371;BME280;48550;40.588;49.684;2023-03-19T08:28:03;101804.97;;;15.48;89.32
60371;BME280;48550;40.588;49.684;2023-03-19T08:30:29;101806.97;;;15.53;88.34
60371;BME280;48550;40.588;49.684;2023-03-19T08:32:56;101807.78;;;15.53;89.66
60371;BME280;48550;40.588;49.684;2023-03-19T08:35:23;101794.75;;;15.39;89.33
60371;BME280;48550;40.588;49.684;2023-03-19T08:37:51;101798.66;;;15.31;88.07
60371;BME280;48550;40.588;49.684;2023-03-19T08:40:18;101790.94;;;15.11;93.36
60371;BME280;48550;40.588;49.684;2023-03-19T08:42:43;101793.03;;;14.74;93.82
60371;BME280;48550;40.588;49.684;2023-03-19T08:45:11;101789.50;;;14.74;95.87
60371;BME280;48550;40.588;49.684;2023-03-19T08:47:37;101778.69;;;14.85;95.95
60371;BME280;48550;40.588;49.684;2023-03-19T08:50:03;101767.44;;;14.88;95.79
60371;BME280;48550;40.588;49.684;2023-03-19T08:52:29;101778.22;;;14.77;95.92
60371;BME280;48550;40.588;49.684;2023-03-19T08:54:55;101773.88;;;15.11;94.14
60371;BME280;48550;40.588;49.684;2023-03-19T08:57:21;101780.00;;;15.06;95.33
60371;BME280;48550;40.588;49.684;2023-03-19T08:59:47;101769.06;;;14.78;93.38
60371;BME280;48550;40.588;49.684;2023-03-19T09:02:12;101762.81;;;14.12;100.00
60371;BME280;48550;40.588;49.684;2023-03-19T09:04:42;101763.75;;;14.59;100.00
60371;BME280;48550;40.588;49.684;2023-03-19T09:07:09;101760.00;;;14.60;98.99
60371;BME280;48550;40.588;49.684;2023-03-19T09:09:40;101759.56;;;14.87;100.00
60371;BME280;48550;40.588;49.684;2023-03-19T09:12:08;101753.44;;;14.91;99.91
60371;BME280;48550;40.588;49.684;2023-03-19T09:14:35;101752.59;;;14.44;100.00
60371;BME280;48550;40.588;49.684;2023-03-19T09:17:01;101749.34;;;14.24;100.00
60371;BME280;48550;40.588;49.684;2023-03-19T09:19:27;101742.06;;;14.24;100.00
60371;BME280;48550;40.588;49.684;2023-03-19T09:21:52;101729.41;;;14.25;100.00
60371;BME280;48550;40.588;49.684;2023-03-19T09:24:18;101732.66;;;14.15;100.00
60371;BME280;48550;40.588;49.684;2023-03-19T09:26:45;101732.06;;;14.13;100.00
60371;BME280;48550;40.588;49.684;2023-03-19T09:29:11;101727.53;;;13.95;100.00
60371;BME280;48550;40.588;49.684;2023-03-19T09:31:38;101732.94;;;13.95;100.00
60371;BME280;48550;40.588;49.684;2023-03-19T09:34:05;101730.44;;;13.52;100.00
60371;BME280;48550;40.588;49.684;2023-03-19T09:36:32;101722.88;;;13.24;100.00
60371;BME280;48550;40.588;49.684;2023-03-19T09:38:58;101726.28;;;13.13;100.00
60371;BME280;48550;40.588;49.684;2023-03-19T09:41:53;101721.50;;;13.15;100.00
60371;BME280;48550;40.588;49.684;2023-03-19T09:44:33;101720.53;;;13.28;100.00
60371;BME280;48550;40.588;49.684;2023-03-19T09:49:36;101714.53;;;12.89;100.00
60371;BME280;48550;40.588;49.684;2023-03-19T09:54:34;101708.09;;;12.90;100.00
60371;BME280;48550;40.588;49.684;2023-03-19T09:57:01;101714.22;;;12.79;100.00
60371;BME280;48550;40.588;49.684;2023-03-19T09:59:28;101710.88;;;12.59;100.00
60371;BME280;48550;40.588;49.684;2023-03-19T10:02:33;101705.84;;;12.69;100.00
60371;BME280;48550;40.588;49.684;2023-03-19T10:07:48;101700.81;;;12.72;100.00
60371;BME280;48550;40.588;49.684;2023-03-19T10:11:03;101711.91;;;12.58;100.00
60371;BME280;48550;40.588;49.684;2023-03-19T10:16:00;101699.41;;;12.20;100.00
60371;BME280;48550;40.588;49.684;2023-03-19T10:18:30;101696.06;;;12.25;100.00
60371;BME280;48550;40.588;49.684;2023-03-19T10:21:05;101688.41;;;11.97;100.00
60371;BME280;48550;40.588;49.684;2023-03-19T10:23:59;101694.72;;;11.77;100.00
60371;BME280;48550;40.588;49.684;2023-03-19T10:26:32;101704.03;;;11.75;100.00
60371;BME280;48550;40.588;49.684;2023-03-19T10:34:13;101682.59;;;12.00;100.00
60371;BME280;48550;40.588;49.684;2023-03-19T10:36:43;101685.34;;;12.18;100.00
60371;BME280;48550;40.588;49.684;2023-03-19T10:39:09;101683.22;;;12.27;100.00
60371;BME280;48550;40.588;49.684;2023-03-19T10:44:47;101686.84;;;12.14;100.00
60371;BME280;48550;40.588;49.684;2023-03-19T10:47:16;101687.00;;;12.19;100.00
60371;BME280;48550;40.588;49.684;2023-03-19T10:49:42;101674.25;;;12.08;100.00
60371;BME280;48550;40.588;49.684;2023-03-19T10:52:28;101676.84;;;11.96;100.00
60371;BME280;48550;40.588;49.684;2023-03-19T10:55:01;101674.88;;;11.78;100.00
60371;BME280;48550;40.588;49.684;2023-03-19T10:57:28;101670.38;;;11.66;100.00
60371;BME280;48550;40.588;49.684;2023-03-19T11:00:01;101669.44;;;11.47;100.00
60371;BME280;48550;40.588;49.684;2023-03-19T11:02:28;101658.50;;;11.42;100.00
60371;BME280;48550;40.588;49.684;2023-03-19T11:07:37;101653.78;;;11.37;100.00
60371;BME280;48550;40.588;49.684;2023-03-19T11:10:03;101667.28;;;11.24;100.00
60371;BME280;48550;40.588;49.684;2023-03-19T11:12:34;101664.84;;;11.09;100.00
60371;BME280;48550;40.588;49.684;2023-03-19T11:15:02;101660.31;;;11.03;100.00
60371;BME280;48550;40.588;49.684;2023-03-19T11:17:59;101656.66;;;10.85;100.00
60371;BME280;48550;40.588;49.684;2023-03-19T11:20:32;101654.81;;;10.78;100.00
60371;BME280;48550;40.588;49.684;2023-03-19T11:23:00;101654.81;;;10.85;100.00
60371;BME280;48550;40.588;49.684;2023-03-19T11:25:46;101649.94;;;10.56;100.00
60371;BME280;48550;40.588;49.684;2023-03-19T11:28:16;101655.91;;;10.38;100.00
60371;BME280;48550;40.588;49.684;2023-03-19T11:30:52;101651.38;;;10.38;100.00
60371;BME280;48550;40.588;49.684;2023-03-19T11:33:27;101650.97;;;10.35;100.00
60371;BME280;48550;40.588;49.684;2023-03-19T11:36:08;101640.03;;;10.36;100.00
60371;BME280;48550;40.588;49.684;2023-03-19T11:42:04;101639.81;;;10.31;100.00
60371;BME280;48550;40.588;49.684;2023-03-19T11:44:49;101639.00;;;10.31;100.00
60371;BME280;48550;40.588;49.684;2023-03-19T12:00:55;101627.66;;;10.35;100.00
60371;BME280;48550;40.588;49.684;2023-03-19T12:03:48;101633.22;;;10.01;100.00
60371;BME280;48550;40.588;49.684;2023-03-19T12:06:38;101624.50;;;9.66;100.00
60371;BME280;48550;40.588;49.684;2023-03-19T12:11:42;101627.84;;;9.81;100.00
60371;BME280;48550;40.588;49.684;2023-03-19T12:14:16;101630.13;;;9.91;100.00
60371;BME280;48550;40.588;49.684;2023-03-19T12:17:06;101630.91;;;9.65;100.00
60371;BME280;48550;40.588;49.684;2023-03-19T12:20:22;101629.50;;;9.82;100.00
60371;BME280;48550;40.588;49.684;2023-03-19T12:22:51;101624.34;;;10.00;100.00
60371;BME280;48550;40.588;49.684;2023-03-19T12:25:49;101622.50;;;9.87;100.00
60371;BME280;48550;40.588;49.684;2023-03-19T12:28:28;101627.44;;;9.77;100.00
60371;BME280;48550;40.588;49.684;2023-03-19T12:36:22;101634.81;;;9.62;100.00
60371;BME280;48550;40.588;49.684;2023-03-19T12:39:02;101645.50;;;9.49;100.00
60371;BME280;48550;40.588;49.684;2023-03-19T12:41:31;101645.69;;;9.41;100.00
60371;BME280;48550;40.588;49.684;2023-03-19T12:44:12;101640.13;;;9.36;100.00
60371;BME280;48550;40.588;49.684;2023-03-19T12:46:55;101629.84;;;9.59;100.00
60371;BME280;48550;40.588;49.684;2023-03-19T12:49:30;101637.94;;;9.72;100.00
60371;BME280;48550;40.588;49.684;2023-03-19T12:52:39;101638.56;;;9.68;100.00
60371;BME280;48550;40.588;49.684;2023-03-19T12:55:16;101635.25;;;9.72;100.00
60371;BME280;48550;40.588;49.684;2023-03-19T12:58:00;101632.34;;;9.61;100.00
60371;BME280;48550;40.588;49.684;2023-03-19T13:00:39;101626.75;;;9.55;100.00
60371;BME280;48550;40.588;49.684;2023-03-19T13:03:22;101627.38;;;9.64;100.00
60371;BME280;48550;40.588;49.684;2023-03-19T13:17:32;101631.13;;;9.70;100.00
60371;BME280;48550;40.588;49.684;2023-03-19T13:19:44;101611.72;;;9.61;100.00
60371;BME280;48550;40.588;49.684;2023-03-19T13:22:29;101617.91;;;9.55;100.00
60371;BME280;48550;40.588;49.684;2023-03-19T13:24:57;101618.72;;;9.55;100.00
60371;BME280;48550;40.588;49.684;2023-03-19T13:27:32;101620.38;;;9.50;100.00
60371;BME280;48550;40.588;49.684;2023-03-19T13:30:15;101614.56;;;9.40;100.00
60371;BME280;48550;40.588;49.684;2023-03-19T13:32:52;101623.41;;;9.34;100.00
60371;BME280;48550;40.588;49.684;2023-03-19T13:36:00;101617.81;;;9.22;100.00
60371;BME280;48550;40.588;49.684;2023-03-19T13:38:37;101619.47;;;9.16;100.00
60371;BME280;48550;40.588;49.684;2023-03-19T13:41:04;101623.56;;;9.12;100.00
60371;BME280;48550;40.588;49.684;2023-03-19T13:43:52;101618.00;;;9.07;100.00
60371;BME280;48550;40.588;49.684;2023-03-19T13:54:14;101627.66;;;9.08;100.00
60371;BME280;48550;40.588;49.684;2023-03-19T13:59:38;101617.59;;;9.17;100.00
60371;BME280;48550;40.588;49.684;2023-03-19T14:07:23;101612.28;;;8.76;100.00
60371;BME280;48550;40.588;49.684;2023-03-19T14:12:33;101617.63;;;8.76;100.00